Time;durP1;ratioP1;P1;durP2;ratioP2;P2;SDS_P1;SDS_P2;PMS_P1;PMS_P2;Temp;Humidity;BMP_temperature;BMP_pressure;BME280_temperature;BME280_humidity;BME280_pressure;Samples;Min_cycle;Max_cycle;Signal;HPM_P1;HPM_P2
2021/12/06 00:02:20;;;;;;;23.25;11.88;;;;;;;0.71;100.00;95386.09;20605712;28;20053;-71
2021/12/06 00:12:20;;;;;;;20.45;11.52;;;;;;;0.72;100.00;95392.91;20603301;28;20489;-72
2021/12/06 00:22:23;;;;;;;21.48;11.32;;;;;;;0.66;100.00;95386.06;20602486;28;20077;-72
2021/12/06 00:32:24;;;;;;;27.48;13.13;;;;;;;0.73;100.00;95396.28;20582105;28;20069;-71
2021/12/06 00:42:28;;;;;;;24.10;11.02;;;;;;;0.82;100.00;95401.84;20620728;28;20042;-71
2021/12/06 00:52:29;;;;;;;22.17;12.15;;;;;;;0.75;100.00;95412.47;20598031;28;20065;-71
2021/12/06 01:02:29;;;;;;;26.00;13.82;;;;;;;0.74;100.00;95436.97;20604898;28;20128;-72
2021/12/06 01:12:29;;;;;;;26.02;11.85;;;;;;;0.74;100.00;95460.44;20567031;28;20505;-71
2021/12/06 01:22:33;;;;;;;23.75;11.75;;;;;;;0.83;100.00;95466.00;20603729;28;21339;-72
2021/12/06 01:43:02;;;;;;;21.73;11.52;;;;;;;0.86;100.00;95475.91;20568070;28;20050;-71
2021/12/06 01:53:04;;;;;;;21.33;11.88;;;;;;;0.72;100.00;95484.13;20613650;28;20139;-72
2021/12/06 02:03:06;;;;;;;23.52;12.68;;;;;;;0.73;100.00;95497.94;20604930;28;20060;-71
2021/12/06 02:13:08;;;;;;;22.55;12.15;;;;;;;0.65;100.00;95503.56;20614094;28;20441;-72
2021/12/06 02:23:09;;;;;;;19.58;11.65;;;;;;;0.55;100.00;95491.19;20585652;28;20085;-71
2021/12/06 02:33:10;;;;;;;24.30;12.70;;;;;;;0.44;100.00;95500.69;20612611;28;20054;-72
2021/12/06 02:43:13;;;;;;;25.65;12.98;;;;;;;0.41;100.00;95516.81;20634863;28;20382;-71
2021/12/06 02:53:15;;;;;;;22.30;12.30;;;;;;;0.18;100.00;95534.22;20600687;28;20526;-71
2021/12/06 03:03:19;;;;;;;25.10;13.43;;;;;;;0.09;100.00;95525.22;20633288;28;20050;-71
2021/12/06 03:13:19;;;;;;;28.25;13.68;;;;;;;-0.04;100.00;95539.34;20556386;28;20034;-71
2021/12/06 03:23:20;;;;;;;27.85;13.43;;;;;;;-0.13;100.00;95551.16;20635489;28;20394;-71
2021/12/06 03:33:20;;;;;;;26.65;13.05;;;;;;;-0.07;100.00;95567.66;20620115;28;20082;-71
2021/12/06 03:43:21;;;;;;;24.03;11.63;;;;;;;-0.27;100.00;95576.69;20602521;28;20048;-72
2021/12/06 03:53:21;;;;;;;23.90;12.68;;;;;;;-0.47;100.00;95581.53;20606837;28;20293;-71
2021/12/06 04:03:25;;;;;;;24.33;11.45;;;;;;;-0.68;100.00;95595.97;20597049;28;20133;-72
2021/12/06 04:13:26;;;;;;;53.50;12.93;;;;;;;-0.75;100.00;95603.91;20602598;28;20041;-71
2021/12/06 04:23:27;;;;;;;23.73;11.63;;;;;;;-0.89;100.00;95600.00;20604063;28;20137;-72
2021/12/06 04:33:27;;;;;;;67.72;13.63;;;;;;;-1.22;100.00;95609.19;20601800;28;20054;-71
2021/12/06 04:43:27;;;;;;;19.85;10.70;;;;;;;-1.36;100.00;95618.25;20591972;28;20052;-72
2021/12/06 04:53:36;;;;;;;31.98;12.35;;;;;;;-1.47;100.00;95638.78;20601304;28;20255;-71
2021/12/06 05:03:40;;;;;;;132.82;16.63;;;;;;;-1.31;100.00;95655.53;20577416;28;21181;-72
2021/12/06 05:13:42;;;;;;;295.70;20.08;;;;;;;-1.35;100.00;95671.75;20540399;28;21245;-71
2021/12/06 05:23:43;;;;;;;84.70;10.60;;;;;;;-1.29;100.00;95676.06;20519990;28;20426;-72
2021/12/06 05:33:52;;;;;;;297.98;20.27;;;;;;;-1.20;100.00;95705.13;20534495;28;20046;-71
2021/12/06 05:43:52;;;;;;;157.48;13.52;;;;;;;-1.34;100.00;95710.50;20493184;28;20406;-71
2021/12/06 05:53:53;;;;;;;224.60;17.67;;;;;;;-1.22;100.00;95715.72;20562741;28;20035;-71
2021/12/06 06:03:53;;;;;;;141.73;13.07;;;;;;;-1.24;100.00;95728.94;20597520;28;20050;-72
2021/12/06 06:13:54;;;;;;;191.73;15.93;;;;;;;-1.25;100.00;95752.53;20577447;28;20030;-71
2021/12/06 06:23:55;;;;;;;79.70;10.75;;;;;;;-1.23;100.00;95755.69;20573658;28;20482;-71
2021/12/06 06:33:55;;;;;;;22.73;7.47;;;;;;;-1.09;100.00;95767.47;20592361;28;20070;-73
2021/12/06 06:43:55;;;;;;;14.65;7.45;;;;;;;-0.92;100.00;95759.00;20663181;28;20188;-73
2021/12/06 06:53:57;;;;;;;50.95;10.85;;;;;;;-0.94;100.00;95772.25;20661461;28;20055;-73
2021/12/06 07:03:57;;;;;;;28.27;9.05;;;;;;;-0.82;100.00;95773.06;20677701;28;20140;-73
2021/12/06 07:13:58;;;;;;;67.80;11.27;;;;;;;-0.94;100.00;95789.63;20666356;28;20052;-73
2021/12/06 07:23:59;;;;;;;104.38;13.50;;;;;;;-1.03;100.00;95797.75;20630958;28;20054;-75
2021/12/06 07:33:59;;;;;;;59.30;11.25;;;;;;;-1.01;100.00;95798.34;20646838;28;20108;-77
2021/12/06 07:44:02;;;;;;;396.80;25.08;;;;;;;-0.94;100.00;95821.66;20663990;28;20486;-79
2021/12/06 07:54:03;;;;;;;228.57;17.05;;;;;;;-0.94;100.00;95828.63;20693681;28;20245;-79
2021/12/06 08:04:03;;;;;;;55.13;11.68;;;;;;;-0.91;100.00;95834.19;20681923;28;20117;-79
2021/12/06 08:14:04;;;;;;;194.38;15.75;;;;;;;-0.75;100.00;95837.94;20694329;28;20034;-76
2021/12/06 08:24:06;;;;;;;437.40;29.98;;;;;;;-0.88;100.00;95840.75;20661919;28;20139;-77
2021/12/06 08:34:06;;;;;;;166.05;14.98;;;;;;;-0.90;100.00;95845.38;20653260;28;20121;-76
2021/12/06 08:44:06;;;;;;;157.23;15.68;;;;;;;-0.78;100.00;95843.59;20673035;28;20505;-79
2021/12/06 08:54:08;;;;;;;61.55;9.82;;;;;;;-0.59;100.00;95851.28;20684592;28;21251;-79
2021/12/06 09:04:12;;;;;;;80.22;10.25;;;;;;;-0.44;100.00;95859.44;20715651;28;20057;-80
2021/12/06 09:14:15;;;;;;;210.88;15.60;;;;;;;-0.44;100.00;95852.44;20711457;28;20339;-76
2021/12/06 09:24:19;;;;;;;136.70;10.55;;;;;;;-0.40;100.00;95850.19;20720092;28;20069;-79
2021/12/06 09:34:20;;;;;;;107.30;10.60;;;;;;;-0.19;100.00;95843.59;20697241;28;20077;-80
2021/12/06 09:44:20;;;;;;;76.07;10.23;;;;;;;-0.27;100.00;95852.53;20704651;28;20477;-79
2021/12/06 09:54:24;;;;;;;124.30;13.23;;;;;;;-0.29;100.00;95861.59;20706390;28;20425;-80
2021/12/06 10:04:28;;;;;;;33.63;8.52;;;;;;;-0.29;100.00;95880.59;20722491;28;20184;-80
2021/12/06 10:14:29;;;;;;;24.33;9.10;;;;;;;-0.17;100.00;95874.63;20699573;28;20403;-79
2021/12/06 10:24:30;;;;;;;35.60;11.27;;;;;;;-0.10;100.00;95865.69;20711514;28;20473;-80
2021/12/06 10:34:30;;;;;;;39.47;11.93;;;;;;;0.24;100.00;95865.84;20683129;28;20054;-77
2021/12/06 10:44:31;;;;;;;36.17;14.45;;;;;;;0.18;100.00;95856.34;20695348;28;20115;-79
2021/12/06 10:54:35;;;;;;;32.80;14.25;;;;;;;0.17;100.00;95836.53;20673345;28;20314;-79
2021/12/06 11:04:38;;;;;;;32.15;12.38;;;;;;;0.17;100.00;95832.13;20711320;28;20128;-78
2021/12/06 11:14:42;;;;;;;31.88;12.40;;;;;;;0.17;100.00;95816.50;20686510;28;20040;-80
2021/12/06 11:24:46;;;;;;;29.17;11.63;;;;;;;0.29;100.00;95813.84;20657866;28;20053;-79
2021/12/06 11:34:52;;;;;;;23.85;10.18;;;;;;;0.51;100.00;95807.97;20690969;28;20045;-79
2021/12/06 11:44:52;;;;;;;26.80;11.23;;;;;;;0.73;100.00;95771.63;20681481;28;20050;-77
2021/12/06 11:54:59;;;;;;;26.05;11.13;;;;;;;1.09;100.00;95749.53;20703462;28;20046;-79
2021/12/06 12:05:32;;;;;;;28.77;11.77;;;;;;;1.18;100.00;95729.03;20704072;28;20080;-79
2021/12/06 12:15:33;;;;;;;27.10;12.50;;;;;;;1.13;100.00;95739.41;20674527;28;20166;-80
2021/12/06 12:25:38;;;;;;;26.00;11.63;;;;;;;1.21;100.00;95725.97;20685830;28;20077;-79
2021/12/06 12:35:41;;;;;;;26.67;11.40;;;;;;;1.03;100.00;95729.59;20699149;28;20097;-78
2021/12/06 12:45:48;;;;;;;24.08;11.25;;;;;;;1.07;100.00;95735.16;20703065;28;20100;-78
2021/12/06 12:55:49;;;;;;;25.10;10.48;;;;;;;1.02;100.00;95717.59;20693554;28;20068;-76
2021/12/06 13:06:15;;;;;;;27.25;12.38;;;;;;;1.00;100.00;95696.16;20692526;28;20042;-79
2021/12/06 13:26:49;;;;;;;23.98;10.75;;;;;;;0.68;100.00;95672.50;20699017;28;20485;-78
2021/12/06 13:37:10;;;;;;;16.27;7.68;;;;;;;0.53;100.00;95658.22;20690334;28;20038;-78
2021/12/06 13:47:18;;;;;;;18.95;9.20;;;;;;;0.23;100.00;95653.31;20694707;28;20070;-79
2021/12/06 13:57:21;;;;;;;18.38;7.95;;;;;;;0.19;100.00;95639.16;20701161;28;20394;-78
2021/12/06 14:07:23;;;;;;;19.20;9.02;;;;;;;0.07;100.00;95630.63;20697235;28;20050;-79
2021/12/06 14:17:24;;;;;;;20.73;9.85;;;;;;;0.07;100.00;95607.19;20684476;28;20139;-78
2021/12/06 14:27:30;;;;;;;24.23;11.15;;;;;;;-0.02;100.00;95588.56;20678326;28;20037;-78
2021/12/06 14:37:31;;;;;;;24.58;12.25;;;;;;;-0.13;100.00;95585.00;20643651;28;20485;-79
2021/12/06 14:47:35;;;;;;;27.50;12.60;;;;;;;-0.21;100.00;95591.38;20651725;28;20046;-78
2021/12/06 14:57:36;;;;;;;22.98;10.52;;;;;;;-0.39;100.00;95575.16;20635841;28;20038;-77
2021/12/06 15:07:36;;;;;;;28.48;13.35;;;;;;;-0.43;100.00;95565.25;20615815;28;20105;-74
2021/12/06 15:17:37;;;;;;;32.05;15.13;;;;;;;-0.49;100.00;95560.16;20634740;28;20077;-76
2021/12/06 15:27:40;;;;;;;34.05;14.23;;;;;;;-0.57;100.00;95544.94;20643343;28;20049;-77
2021/12/06 15:37:40;;;;;;;29.63;12.55;;;;;;;-0.67;100.00;95530.75;20610937;28;20046;-79
2021/12/06 15:47:46;;;;;;;30.35;14.07;;;;;;;-0.71;100.00;95518.44;20629395;28;20075;-79
2021/12/06 15:57:47;;;;;;;32.27;13.77;;;;;;;-0.70;100.00;95517.41;20628422;28;20649;-77
2021/12/06 16:08:04;;;;;;;24.50;12.15;;;;;;;-0.80;100.00;95499.81;20637073;28;20389;-75
2021/12/06 16:18:08;;;;;;;22.88;11.18;;;;;;;-0.78;100.00;95489.19;20635581;28;20501;-76
2021/12/06 16:28:10;;;;;;;27.52;13.35;;;;;;;-0.69;100.00;95461.78;20628226;28;20137;-77
2021/12/06 16:38:28;;;;;;;24.15;11.07;;;;;;;-0.68;100.00;95464.13;20631677;28;20442;-78
2021/12/06 16:48:28;;;;;;;25.30;11.85;;;;;;;-0.65;100.00;95448.06;20651333;28;20093;-76
2021/12/06 16:58:32;;;;;;;30.42;12.77;;;;;;;-0.65;100.00;95422.06;20659303;28;20091;-77
2021/12/06 17:08:39;;;;;;;24.40;12.30;;;;;;;-0.52;100.00;95420.19;20652624;28;20104;-79
2021/12/06 17:18:39;;;;;;;;;;;;;;;-0.49;100.00;95451.72;20680426;28;20509;-77
2021/12/06 17:28:44;;;;;;;28.52;13.80;;;;;;;-0.60;100.00;95452.56;20676146;28;19917;-77
2021/12/06 17:38:47;;;;;;;27.65;12.68;;;;;;;-0.61;100.00;95448.41;20675918;28;20402;-75
2021/12/06 17:48:48;;;;;;;28.30;13.32;;;;;;;-0.50;100.00;95444.94;20675254;28;20448;-77
2021/12/06 17:58:54;;;;;;;29.42;14.32;;;;;;;-0.47;100.00;95439.25;20674148;28;21493;-79
2021/12/06 18:08:55;;;;;;;26.42;13.80;;;;;;;-0.43;100.00;95416.16;20618585;28;20052;-72
2021/12/06 18:18:55;;;;;;;29.15;13.90;;;;;;;-0.36;100.00;95405.59;20626069;28;20042;-73
2021/12/06 18:28:56;;;;;;;26.20;13.75;;;;;;;-0.34;100.00;95378.31;20643636;28;20030;-72
2021/12/06 18:38:59;;;;;;;24.77;12.40;;;;;;;-0.30;100.00;95344.81;20621751;28;20049;-72
2021/12/06 18:49:00;;;;;;;26.15;12.68;;;;;;;-0.26;100.00;95325.09;20624556;28;20059;-73
2021/12/06 18:59:02;;;;;;;23.00;11.63;;;;;;;-0.26;100.00;95312.06;20625190;28;20066;-73
2021/12/06 19:09:05;;;;;;;24.23;11.60;;;;;;;-0.30;100.00;95277.94;20641011;28;20046;-72
2021/12/06 19:19:06;;;;;;;22.38;11.15;;;;;;;-0.33;100.00;95262.00;20782188;23;20625;-83
2021/12/06 19:29:07;;;;;;;22.23;10.60;;;;;;;-0.39;100.00;95235.13;20712113;28;20077;-81
2021/12/06 19:39:08;;;;;;;20.35;10.13;;;;;;;-0.51;100.00;95213.66;20751290;28;20499;-81
2021/12/06 19:49:09;;;;;;;23.85;10.35;;;;;;;-0.58;100.00;95187.06;20742104;28;20053;-83
2021/12/06 19:59:10;;;;;;;14.98;7.13;;;;;;;-0.58;100.00;95180.03;20764996;28;20033;-81
2021/12/06 20:09:10;;;;;;;15.00;6.95;;;;;;;-0.59;100.00;95162.88;20748337;28;20057;-85
2021/12/06 20:19:12;;;;;;;14.55;7.25;;;;;;;-0.66;100.00;95139.63;20722082;28;20045;-83
2021/12/06 20:29:14;;;;;;;11.95;5.93;;;;;;;-0.67;100.00;95093.88;20674703;28;20365;-82
2021/12/06 20:39:20;;;;;;;12.93;6.55;;;;;;;-0.61;100.00;95072.09;20754319;28;20466;-83
2021/12/06 20:49:20;;;;;;;11.10;6.13;;;;;;;-0.52;100.00;95056.81;20706054;28;20132;-86
2021/12/06 20:59:22;;;;;;;12.27;7.25;;;;;;;-0.55;100.00;95022.72;20685947;28;20392;-85
2021/12/06 21:09:24;;;;;;;10.48;5.60;;;;;;;-0.57;100.00;94999.56;20720613;28;20129;-84
2021/12/06 21:19:24;;;;;;;9.45;4.90;;;;;;;-0.49;100.00;94985.31;20697632;28;20080;-84
2021/12/06 21:29:26;;;;;;;7.70;4.45;;;;;;;-0.44;100.00;94965.34;20692102;28;20041;-83
2021/12/06 21:39:26;;;;;;;8.35;4.78;;;;;;;-0.50;100.00;94953.31;20690754;28;20060;-84
2021/12/06 21:49:27;;;;;;;9.25;4.88;;;;;;;-0.49;100.00;94948.91;20720752;28;20041;-85
2021/12/06 21:59:27;;;;;;;8.25;3.78;;;;;;;-0.47;100.00;94910.44;20713589;28;20053;-82
2021/12/06 22:19:53;;;;;;;5.50;2.40;;;;;;;-0.49;100.00;94878.69;20721705;28;20053;-83
2021/12/06 22:29:53;;;;;;;5.85;2.33;;;;;;;-0.54;100.00;94882.03;20699827;28;20127;-83
2021/12/06 22:50:19;;;;;;;4.28;1.58;;;;;;;-0.61;100.00;94890.06;20758428;28;20046;-86
2021/12/06 23:11:03;;;;;;;2.92;1.20;;;;;;;-0.56;100.00;94922.34;20394643;23;20642;-74
2021/12/06 23:21:04;;;;;;;;;;;;;;;-0.52;100.00;94918.22;20421864;28;20660;-73
2021/12/06 23:31:10;;;;;;;4.20;1.42;;;;;;;-0.56;100.00;94928.31;20455348;28;20295;-74
2021/12/06 23:41:20;;;;;;;4.15;1.85;;;;;;;-0.50;100.00;94952.56;20408917;28;20054;-73
2021/12/06 23:51:20;;;;;;;6.80;3.65;;;;;;;-0.37;100.00;94982.56;20440263;28;20051;-74
